KBML/BML METAR and TAF weather

Enter ICAO airport designator
Station Type Date Time Source
KBML METAR 2018/07/21 03:52 UTC NOAA

KBML 210352Z AUTO 00000KT 10SM CLR 14/13 A3018 RMK AO2 SLP217 T01390128


Station Type Date Time Source
KBML Decoded METAR 2018/07/21 03:52 UTC NOAA

BERLIN MUNICIPAL AIRPORT, NH, United States (KBML) 44-35N 71-11W 345M
Jul 20, 2018 - 11:52 PM EDT / 2018.07.21 0352 UTC
Wind: Calm:0
Visibility: 10 mile(s):0
Sky conditions: clear
Temperature: 57.0 F (13.9 C)
Dew Point: 55.0 F (12.8 C)
Relative Humidity: 93%
Pressure (altimeter): 30.18 in. Hg (1022 hPa)
ob: KBML 210352Z AUTO 00000KT 10SM CLR 14/13 A3018 RMK AO2 SLP217 T01390128
cycle: 4

Station Type Date Time Source
KBML TAF UTC NOAA

Error!


Example: see airport list